West Palm Beach, FL (33413)

2:27 PM EST on December 08, 2016 (GMT -0500)
Okeeheelee Ski Site | | Change Station

Elev 43 ft 26.66 °N, 80.17 °W | Updated 0 second ago

Mostly Cloudy
Mostly Cloudy
80.7 °F
Feels Like 84 °F
N
7.2
Wind Variable Wind from NNE
Gusts 7.6 mph

Today
High -- | Low -- °F
--% Chance of Precip.
Yesterday
High -- | Low -- °F
Precip. -- in
Pressure 30.07 in
Visibility 10.0 miles
Clouds Scattered Clouds 2400 ft
Mostly Cloudy 3100 ft
Mostly Cloudy 4300 ft
Heat Index 84 °F
Dew Point 76 °F
Humidity 67%
Rainfall 0.00 in
Snow Depth Not available.
6:57 AM 5:28 PM
Waxing Gibbous, 66% visible
METAR KPBI 081853Z 02008KT 10SM SCT024 BKN031 BKN043 25/20 A3007 RMK AO2 SLP182 T02500200
Pressure 30.07 in
Visibility 10.0 miles
Clouds Scattered Clouds 2400 ft
Mostly Cloudy 3100 ft
Mostly Cloudy 4300 ft
Heat Index 84 °F
Dew Point 76 °F
Humidity 67%
Rainfall 0.00 in
Snow Depth Not available.
6:57 AM 5:28 PM
Waxing Gibbous, 66% visible
METAR KPBI 081853Z 02008KT 10SM SCT024 BKN031 BKN043 25/20 A3007 RMK AO2 SLP182 T02500200

10-Day Weather Forecast

Almanac

Astronomy

Dec. 08, 2016 Rise Set
Actual Time
Civil Twilight
Nautical Twilight
Astronomical Twilight
Moon
Length of Visible Light
Length of Day
Tomorrow will be .
, % of the Moon is Illuminated

Today's Extremes

State Highs State Lows

Community

WunderPhotos

Upload Photos

1,956,277 photos uploaded!

WunderBlog® & News

Nearby

Air Quality

  Air Quality AQ Index Pollutant
Not available.

Snow Depth

Station Depth Elevation

Earthquake Activity

City Distance Mag. Time & Date
Minimum magnitude displayed is 2.5.

Coastal Water Temperatures

Place Temperature

Stations

Nearby Weather Stations

Station Location Temp. Windchill Dew Point Humidity Wind Precip. Elev Updated Type
                   

Watches & Warnings

There are currently no watches in effect.